Terminal Aerodrome Forecast
Issued by NWS

Home | Current Version | Previous Version | Text Only | Print | Product List | Glossary On
Versions: 1 2 3 4 5 6 7 8 9 10 11 12 13 14 15 16 17 18 19 20 21
000
FTAK31 PAJN 012300
TAFAJN
TAF
PAJN 012330Z 0200/0224 24009KT P6SM -SHRA FEW007 BKN035 OVC060
      TEMPO 0200/0203 5SM -SHRA BR BKN007 BKN025 OVC035
     FM020300 07003KT P6SM VCSH BKN040 OVC070
     FM020900 00000KT 4SM BR BKN070 BKN100
     FM021200 00000KT 2SM BR VCFG FEW002 SCT007 BKN070
     FM021600 VRB04KT 6SM BR FEW007 BKN070=

USA.gov is the U.S. government's official web portal to all federal, state and local government web resources and services.